Terminal Aerodrome Forecast
Issued by NWS Cleveland, OH

Home | Current Version | Previous Version | Text Only | Print | Product List | Glossary On
Versions: 1 2 3 4 5 6 7 8 9 10 11 12 13 14 15 16
085
FTUS41 KCLE 231738
TAFYNG
TAF
KYNG 231738Z 2318/2418 18010KT 6SM BR VCSH OVC006
      TEMPO 2318/2322 SCT006 OVC010
     FM232200 25010KT P6SM VCSH OVC007
     FM240900 VRB03KT 3SM BR OVC005
     FM241600 VRB03KT 5SM -RA BR OVC007
     FM241700 07004KT 6SM -RA BR OVC010=

USA.gov is the U.S. government's official web portal to all federal, state and local government web resources and services.